Sheyang, China
Current Conditions -  °F | °C
As of 1:00 PM on Saturday 29 Nov 2014 (Local Time) from ZSQD Reporting Station
Clear Clear  
Wind Chill: 55°   Ceiling: Unl
Heat Index: 55°   Visibility: 6mi
Dew Point: 39°   Wind: 9mph
Humidity: 54%   Direction: 130°SE
Pressure: 30.12"   Gusts: NA
Location:  33.77°N, 120.25°E
Report Text: ZSQD 290500Z 13004MPS 100V170 CAVOK 13/04 Q1020 NOSIG
Loading
Personal Weather Stations






























Interactive Weather Map New forecast layout! Learn more

10-Day Weather Forecast

Advertisements
Track Severe Weather on mobile